Time;durP1;ratioP1;P1;durP2;ratioP2;P2;SDS_P1;SDS_P2;PMS_P1;PMS_P2;Temp;Humidity;BMP_temperature;BMP_pressure;BME280_temperature;BME280_humidity;BME280_pressure;Samples;Min_cycle;Max_cycle;Signal;HPM_P1;HPM_P2
2023/08/07 00:01:01;;;;;;;;;2.80;2.80;;;;;17.41;59.81;98714.13;5015334;28;8842;-77
2023/08/07 00:03:37;;;;;;;;;2.80;2.40;;;;;17.39;59.87;98720.38;5066640;28;8866;-76
2023/08/07 00:06:05;;;;;;;;;2.60;2.60;;;;;17.39;59.82;98716.88;5086613;28;8901;-76
2023/08/07 00:08:36;;;;;;;;;2.80;1.80;;;;;17.38;59.93;98720.47;5071461;28;8875;-76
2023/08/07 00:11:06;;;;;;;;;2.80;2.80;;;;;17.38;59.95;98721.34;5071328;28;8854;-75
2023/08/07 00:13:35;;;;;;;;;3.00;3.00;;;;;17.37;59.51;98724.09;5087470;28;8880;-78
2023/08/07 00:16:04;;;;;;;;;2.80;2.80;;;;;17.34;59.79;98719.81;5070464;28;9008;-74
2023/08/07 00:18:33;;;;;;;;;3.00;3.00;;;;;17.35;59.58;98724.19;5071841;28;8839;-77
2023/08/07 00:21:03;;;;;;;;;2.80;2.80;;;;;17.35;59.72;98715.38;5069122;28;8889;-76
2023/08/07 00:23:32;;;;;;;;;4.60;3.20;;;;;17.32;60.46;98727.00;5088346;28;8837;-77
2023/08/07 00:26:01;;;;;;;;;1.80;1.80;;;;;17.32;59.74;98729.66;5086602;28;8877;-76
2023/08/07 00:28:30;;;;;;;;;3.80;3.80;;;;;17.31;59.65;98735.94;5021694;28;8926;-79
2023/08/07 00:30:59;;;;;;;;;3.80;3.80;;;;;17.30;59.64;98738.69;5073177;28;8873;-80
2023/08/07 00:33:29;;;;;;;;;3.20;3.20;;;;;17.24;59.62;98741.69;5072248;28;8980;-81
2023/08/07 00:35:57;;;;;;;;;3.60;2.60;;;;;17.23;59.45;98742.63;5055311;28;9692;-79
2023/08/07 00:38:29;;;;;;;;;4.00;3.00;;;;;17.17;59.44;98735.91;5070385;28;8846;-80
2023/08/07 00:40:59;;;;;;;;;2.60;2.60;;;;;17.14;59.24;98747.56;5072587;28;8872;-79
2023/08/07 00:43:28;;;;;;;;;2.80;2.80;;;;;17.13;59.84;98748.50;5084217;28;9006;-79
2023/08/07 00:45:58;;;;;;;;;3.60;3.60;;;;;17.10;59.57;98738.09;5019604;28;8833;-80
2023/08/07 00:48:26;;;;;;;;;3.00;3.00;;;;;17.10;60.18;98747.88;5051661;28;8853;-79
2023/08/07 00:50:56;;;;;;;;;3.00;3.00;;;;;17.02;59.91;98744.81;5051476;28;8853;-80
2023/08/07 00:53:26;;;;;;;;;2.40;2.00;;;;;17.00;59.79;98748.41;5051705;28;8861;-80
2023/08/07 00:55:57;;;;;;;;;3.00;3.00;;;;;16.88;59.64;98758.91;5069593;28;8896;-78
2023/08/07 00:58:26;;;;;;;;;4.60;4.60;;;;;16.92;59.36;98757.78;5069946;28;8861;-80
2023/08/07 01:00:55;;;;;;;;;2.60;2.60;;;;;16.80;59.99;98759.38;5011354;28;8830;-79
2023/08/07 01:03:24;;;;;;;;;2.40;2.40;;;;;16.83;59.87;98759.16;5012378;28;8841;-79
2023/08/07 01:05:53;;;;;;;;;3.40;3.40;;;;;16.83;59.94;98753.84;4995350;28;8882;-80
2023/08/07 01:08:22;;;;;;;;;3.60;3.40;;;;;16.87;59.76;98750.09;5012171;28;9652;-81
2023/08/07 01:11:08;;;;;;;;;3.60;3.60;;;;;16.99;59.40;98756.47;4995608;28;8853;-80
2023/08/07 01:13:43;;;;;;;;;3.00;3.00;;;;;16.86;60.11;98760.81;5024227;28;8930;-79
2023/08/07 01:16:22;;;;;;;;;3.20;3.20;;;;;16.92;59.63;98763.09;5047904;28;8851;-80
2023/08/07 01:18:52;;;;;;;;;3.20;3.20;;;;;16.84;59.75;98758.25;5032320;28;8901;-81
2023/08/07 01:21:22;;;;;;;;;3.00;3.00;;;;;16.78;59.68;98758.59;5048299;28;8859;-79
2023/08/07 01:23:52;;;;;;;;;3.40;3.40;;;;;16.79;59.35;98760.31;5048002;28;8949;-80
2023/08/07 01:26:22;;;;;;;;;2.40;2.40;;;;;16.72;59.38;98765.13;5028861;28;8851;-80
2023/08/07 01:29:04;;;;;;;;;4.00;4.00;;;;;16.80;59.85;98760.22;5010746;28;8838;-81
2023/08/07 01:31:35;;;;;;;;;3.60;3.60;;;;;16.61;59.48;98755.13;5024045;28;8874;-81
2023/08/07 01:34:08;;;;;;;;;3.40;3.20;;;;;16.58;59.55;98752.66;5085884;28;8850;-79
2023/08/07 01:36:40;;;;;;;;;3.40;3.40;;;;;16.59;59.84;98748.22;5069960;28;8893;-81
2023/08/07 01:39:12;;;;;;;;;3.00;3.00;;;;;16.53;59.95;98749.44;5086439;28;8858;-80
2023/08/07 01:41:42;;;;;;;;;3.60;3.40;;;;;16.51;59.59;98753.09;5085946;28;8854;-80
2023/08/07 01:44:11;;;;;;;;;5.20;4.60;;;;;16.41;60.02;98750.09;5100484;28;8886;-80
2023/08/07 01:46:40;;;;;;;;;2.80;2.60;;;;;16.41;59.96;98750.09;5074977;28;8885;-80
2023/08/07 01:49:09;;;;;;;;;2.20;2.20;;;;;16.40;60.14;98748.41;5047701;28;8959;-81
2023/08/07 01:51:39;;;;;;;;;3.80;2.60;;;;;16.35;60.97;98751.31;5049123;28;8886;-80
2023/08/07 01:54:09;;;;;;;;;4.00;4.00;;;;;16.40;60.26;98749.25;5048472;28;9990;-80
2023/08/07 01:56:38;;;;;;;;;4.00;4.00;;;;;16.40;60.35;98748.41;5068855;28;9657;-80
2023/08/07 01:59:07;;;;;;;;;3.40;2.40;;;;;16.42;60.73;98752.69;5083396;28;8837;-81
2023/08/07 02:01:36;;;;;;;;;7.20;5.80;;;;;16.45;60.86;98756.13;5082781;28;8930;-80
2023/08/07 02:04:05;;;;;;;;;5.00;4.60;;;;;16.46;60.04;98757.84;5074696;28;8953;-82
2023/08/07 02:06:34;;;;;;;;;6.80;4.40;;;;;16.41;60.34;98766.03;5068853;28;9051;-81
2023/08/07 02:09:04;;;;;;;;;3.80;3.80;;;;;16.35;60.80;98767.22;5070422;28;8850;-80
2023/08/07 02:11:34;;;;;;;;;4.00;4.00;;;;;16.40;60.90;98759.03;5067403;28;9013;-79
2023/08/07 02:14:03;;;;;;;;;4.40;3.80;;;;;16.37;60.49;98768.00;5083726;28;8839;-79
2023/08/07 02:16:31;;;;;;;;;4.60;4.40;;;;;16.34;60.41;98767.31;5033715;28;8876;-80
2023/08/07 02:19:00;;;;;;;;;4.40;4.40;;;;;16.33;61.32;98765.63;5050702;28;8866;-80
2023/08/07 02:21:29;;;;;;;;;5.20;4.00;;;;;16.30;60.46;98763.13;5085667;28;8857;-79
2023/08/07 02:23:58;;;;;;;;;4.40;4.40;;;;;16.32;60.11;98756.81;5087890;28;8842;-80
2023/08/07 02:26:27;;;;;;;;;5.00;5.00;;;;;16.27;60.65;98752.72;5054683;28;8872;-81
2023/08/07 02:28:57;;;;;;;;;4.80;4.80;;;;;16.11;60.32;98747.41;5069871;28;8854;-80
2023/08/07 02:31:26;;;;;;;;;4.60;4.60;;;;;16.21;60.20;98746.81;5070952;28;8980;-80
2023/08/07 02:33:55;;;;;;;;;5.00;5.00;;;;;16.20;60.45;98738.94;5070157;28;9033;-80
2023/08/07 02:36:24;;;;;;;;;4.80;4.60;;;;;16.17;59.82;98739.97;5068165;28;8861;-80
2023/08/07 02:38:53;;;;;;;;;5.00;3.80;;;;;16.17;60.32;98734.69;5029947;28;8870;-80
2023/08/07 02:41:22;;;;;;;;;5.40;4.40;;;;;16.22;60.21;98727.28;5030903;28;8854;-80
2023/08/07 02:43:51;;;;;;;;;8.00;7.80;;;;;16.18;59.79;98725.75;4998645;28;8867;-80
2023/08/07 02:46:21;;;;;;;;;7.40;7.40;;;;;16.17;58.82;98726.72;5049378;28;9004;-79
2023/08/07 02:48:51;;;;;;;;;8.80;8.80;;;;;16.13;58.97;98727.81;5016081;28;8852;-79
2023/08/07 02:51:19;;;;;;;;;5.40;4.00;;;;;15.90;58.85;98726.47;5047813;28;8869;-79
2023/08/07 02:53:49;;;;;;;;;2.20;2.20;;;;;16.05;58.03;98731.84;5027190;28;8860;-79
2023/08/07 02:56:17;;;;;;;;;3.60;2.80;;;;;15.83;58.49;98728.63;5042622;28;8902;-81
2023/08/07 02:58:49;;;;;;;;;3.40;2.80;;;;;15.80;58.03;98727.94;5026571;28;8982;-81
2023/08/07 03:01:18;;;;;;;;;2.20;2.20;;;;;15.62;58.39;98724.50;4993824;28;8868;-80
2023/08/07 03:03:48;;;;;;;;;4.60;4.60;;;;;15.59;58.05;98733.44;5026135;28;8864;-80
2023/08/07 03:06:17;;;;;;;;;7.00;6.00;;;;;15.62;59.18;98740.38;5010111;28;8855;-80
2023/08/07 03:08:46;;;;;;;;;18.00;18.00;;;;;15.76;58.73;98742.31;5029471;28;8864;-79
2023/08/07 03:11:14;;;;;;;;;4.00;4.00;;;;;15.84;58.66;98743.56;5082713;28;9101;-80
2023/08/07 03:13:44;;;;;;;;;7.20;7.00;;;;;15.94;58.42;98749.22;5037303;28;8858;-79
2023/08/07 03:16:12;;;;;;;;;4.40;4.40;;;;;15.99;58.33;98749.81;5046300;28;8869;-81
2023/08/07 03:18:42;;;;;;;;;6.60;6.60;;;;;16.09;58.37;98755.44;5029301;28;8885;-81
2023/08/07 03:21:12;;;;;;;;;5.00;5.00;;;;;16.14;58.20;98752.56;5029010;28;8999;-81
2023/08/07 03:23:42;;;;;;;;;4.20;4.20;;;;;16.17;58.08;98750.59;5065778;28;8844;-80
2023/08/07 03:26:13;;;;;;;;;4.40;4.40;;;;;16.23;57.97;98750.22;5049581;28;8844;-81
2023/08/07 03:28:46;;;;;;;;;4.40;4.40;;;;;16.30;57.97;98758.66;5064614;28;9612;-81
2023/08/07 03:31:16;;;;;;;;;5.00;5.00;;;;;16.36;57.66;98766.28;5050195;28;8871;-80
2023/08/07 03:33:47;;;;;;;;;5.40;5.40;;;;;16.41;57.06;98766.88;5033728;28;8835;-80
2023/08/07 03:36:19;;;;;;;;;5.40;5.40;;;;;16.48;57.02;98778.03;5032735;28;8856;-79
2023/08/07 03:38:48;;;;;;;;;4.40;4.40;;;;;16.51;57.32;98774.31;5033960;28;8854;-82
2023/08/07 03:41:17;;;;;;;;;6.20;6.20;;;;;16.47;56.62;98770.16;5052984;28;8864;-81
2023/08/07 03:43:47;;;;;;;;;4.20;4.20;;;;;16.47;57.31;98773.66;4984704;28;8927;-74
2023/08/07 03:46:16;;;;;;;;;5.80;4.20;;;;;16.46;56.93;98784.38;5007579;28;9017;-74
2023/08/07 03:48:45;;;;;;;;;4.60;4.60;;;;;16.53;57.12;98791.00;5048791;28;8846;-74
2023/08/07 03:51:16;;;;;;;;;5.40;5.40;;;;;16.52;56.60;98790.16;5048684;28;8877;-73
2023/08/07 03:53:51;;;;;;;;;6.00;5.20;;;;;16.56;56.51;98782.88;5017602;28;8869;-75
2023/08/07 03:56:19;;;;;;;;;5.20;4.60;;;;;16.45;56.93;98790.59;5048904;28;8988;-73
2023/08/07 03:58:49;;;;;;;;;3.60;3.60;;;;;16.48;56.23;98791.28;5048761;28;8850;-74
2023/08/07 04:01:20;;;;;;;;;5.20;5.20;;;;;16.57;56.32;98789.91;5048144;28;8858;-73
2023/08/07 04:03:50;;;;;;;;;4.80;4.60;;;;;16.61;55.79;98791.44;5048965;28;8889;-73
2023/08/07 04:06:22;;;;;;;;;5.60;5.60;;;;;16.73;55.81;98789.88;5016025;28;8984;-74
2023/08/07 04:08:52;;;;;;;;;5.00;5.00;;;;;16.82;55.45;98785.84;5063807;28;8982;-74
2023/08/07 04:11:21;;;;;;;;;6.00;6.00;;;;;16.84;54.79;98784.78;5051835;28;9010;-75
2023/08/07 04:13:50;;;;;;;;;5.80;4.40;;;;;16.88;54.98;98781.00;5085489;28;8859;-73
2023/08/07 04:16:19;;;;;;;;;4.60;4.60;;;;;16.86;53.55;98790.84;5068909;28;8852;-73
2023/08/07 04:18:48;;;;;;;;;27.80;26.20;;;;;16.90;54.93;98783.56;5066637;28;8860;-74
2023/08/07 04:21:17;;;;;;;;;7.40;7.00;;;;;16.95;54.56;98785.00;5068590;28;8963;-75
2023/08/07 04:23:46;;;;;;;;;4.00;3.60;;;;;16.98;54.12;98781.28;5051758;28;9605;-74
2023/08/07 04:26:16;;;;;;;;;4.40;4.40;;;;;16.96;54.11;98783.19;5068291;28;8886;-73
2023/08/07 04:28:45;;;;;;;;;26.60;25.80;;;;;16.88;54.85;98785.47;5068224;28;8884;-77
2023/08/07 04:31:14;;;;;;;;;22.00;19.60;;;;;16.91;54.39;98791.44;5035451;28;8909;-76
2023/08/07 04:33:43;;;;;;;;;6.80;6.80;;;;;16.96;54.03;98789.34;5034032;28;8840;-74
2023/08/07 04:36:12;;;;;;;;;7.80;7.80;;;;;16.95;54.46;98795.63;5085696;28;8854;-75
2023/08/07 04:38:41;;;;;;;;;4.40;4.40;;;;;16.98;53.04;98808.72;5088666;28;8976;-77
2023/08/07 04:41:10;;;;;;;;;4.60;4.60;;;;;17.02;52.79;98796.09;5089193;28;8844;-76
2023/08/07 04:43:42;;;;;;;;;20.60;20.40;;;;;16.92;53.29;98805.56;5089435;28;8851;-75
2023/08/07 04:46:11;;;;;;;;;7.40;6.60;;;;;17.05;53.68;98803.03;5087894;28;8867;-74
2023/08/07 04:48:42;;;;;;;;;5.80;5.80;;;;;17.16;53.17;98805.91;5090405;28;8866;-76
2023/08/07 04:51:11;;;;;;;;;7.00;6.60;;;;;17.24;51.19;98798.31;5089846;28;8952;-75
2023/08/07 04:53:40;;;;;;;;;3.60;3.60;;;;;17.10;51.23;98793.00;5090877;28;8844;-75
2023/08/07 04:56:09;;;;;;;;;6.20;6.20;;;;;17.06;52.20;98800.31;5085380;28;8862;-75
2023/08/07 04:58:39;;;;;;;;;6.20;5.60;;;;;17.17;52.92;98805.81;5085881;28;8858;-75
2023/08/07 05:01:08;;;;;;;;;13.20;12.00;;;;;17.33;52.96;98805.78;5074796;28;8832;-75
2023/08/07 05:03:37;;;;;;;;;10.20;10.20;;;;;17.45;50.91;98816.59;5102920;28;8854;-77
2023/08/07 05:06:06;;;;;;;;;5.60;5.60;;;;;17.60;51.88;98815.66;5078020;28;8872;-76
2023/08/07 05:08:38;;;;;;;;;4.80;3.40;;;;;17.71;51.58;98810.53;5071756;28;8844;-74
2023/08/07 05:11:07;;;;;;;;;5.80;5.40;;;;;17.81;50.97;98805.47;5088583;28;8847;-77
2023/08/07 05:13:36;;;;;;;;;7.60;7.00;;;;;17.81;50.10;98812.59;5090503;28;8863;-76
2023/08/07 05:16:06;;;;;;;;;3.80;3.80;;;;;17.95;50.04;98823.25;5089208;28;8875;-75
2023/08/07 05:18:35;;;;;;;;;4.20;4.20;;;;;18.06;49.52;98826.09;5082452;28;8862;-75
2023/08/07 05:21:03;;;;;;;;;6.60;6.60;;;;;18.10;50.08;98818.75;5051403;28;8877;-75
2023/08/07 05:23:32;;;;;;;;;8.00;8.00;;;;;18.24;50.16;98820.56;5049769;28;8865;-75
2023/08/07 05:26:01;;;;;;;;;4.60;4.60;;;;;18.37;49.51;98831.28;5065134;28;8853;-75
2023/08/07 05:28:31;;;;;;;;;6.00;5.00;;;;;18.41;48.16;98827.44;5027236;28;9014;-74
2023/08/07 05:31:01;;;;;;;;;3.80;3.80;;;;;18.37;47.92;98836.59;5060874;28;8933;-73
2023/08/07 05:33:32;;;;;;;;;5.40;4.00;;;;;18.50;47.63;98834.84;5051511;28;8838;-74
2023/08/07 05:36:01;;;;;;;;;2.60;2.60;;;;;18.59;47.26;98838.69;5046822;28;8862;-74
2023/08/07 05:38:29;;;;;;;;;4.60;4.60;;;;;18.80;47.85;98833.78;5046020;28;8903;-74
2023/08/07 05:40:58;;;;;;;;;12.40;10.60;;;;;18.90;46.86;98841.06;5046750;28;8849;-76
2023/08/07 05:43:27;;;;;;;;;4.60;4.60;;;;;18.82;46.78;98848.72;5059051;28;8839;-75
2023/08/07 05:45:56;;;;;;;;;3.00;3.00;;;;;19.01;46.57;98840.34;5048893;28;8870;-75
2023/08/07 05:48:25;;;;;;;;;2.80;2.80;;;;;19.21;46.98;98844.31;5061093;28;9038;-74
2023/08/07 05:50:55;;;;;;;;;2.40;2.20;;;;;19.41;47.18;98845.63;5056408;28;9048;-75
2023/08/07 05:53:24;;;;;;;;;2.00;2.00;;;;;19.57;47.11;98847.25;5045262;28;8862;-76
2023/08/07 05:55:53;;;;;;;;;2.40;2.40;;;;;19.64;45.65;98849.38;5061797;28;8990;-76
2023/08/07 05:58:22;;;;;;;;;2.20;2.20;;;;;19.65;44.92;98851.09;5048678;28;8867;-75
2023/08/07 06:00:51;;;;;;;;;2.00;1.60;;;;;19.74;45.38;98849.59;5088209;28;8964;-74
2023/08/07 06:03:20;;;;;;;;;1.00;1.00;;;;;19.76;44.91;98841.50;5053874;28;8941;-77
2023/08/07 06:05:48;;;;;;;;;1.00;1.00;;;;;19.76;42.96;98852.16;5080728;28;8864;-74
2023/08/07 06:08:19;;;;;;;;;1.80;1.40;;;;;19.93;43.38;98853.63;5087772;28;9703;-77
2023/08/07 06:10:47;;;;;;;;;2.60;1.00;;;;;20.08;41.55;98849.88;5085647;28;9075;-75
2023/08/07 06:13:16;;;;;;;;;1.00;1.00;;;;;20.24;42.04;98850.50;5059608;28;8884;-76
2023/08/07 06:16:03;;;;;;;;;1.00;1.00;;;;;20.32;40.74;98855.28;5062275;28;8863;-77
2023/08/07 06:18:32;;;;;;;;;1.00;1.00;;;;;20.39;41.64;98858.38;5084165;28;8863;-74
2023/08/07 06:21:01;;;;;;;;;1.00;1.00;;;;;20.54;41.27;98853.72;5068789;28;8867;-77
2023/08/07 06:23:31;;;;;;;;;1.00;1.00;;;;;20.72;40.33;98848.84;5068728;28;8839;-77
2023/08/07 06:26:03;;;;;;;;;1.80;1.00;;;;;20.81;41.56;98842.81;5067739;28;8906;-79
2023/08/07 06:28:33;;;;;;;;;2.00;2.00;;;;;20.73;41.69;98851.41;5082835;28;8933;-78
2023/08/07 06:31:03;;;;;;;;;2.80;2.80;;;;;20.76;41.78;98852.97;5068656;28;9679;-76
2023/08/07 06:33:33;;;;;;;;;4.00;4.00;;;;;20.89;42.73;98845.75;5066649;28;8856;-79
2023/08/07 06:36:02;;;;;;;;;4.80;4.80;;;;;20.99;42.09;98849.50;5067502;28;8880;-76
2023/08/07 06:38:33;;;;;;;;;3.80;3.80;;;;;21.08;42.05;98847.91;5079562;28;8879;-77
2023/08/07 06:41:01;;;;;;;;;4.60;3.60;;;;;21.20;42.79;98849.69;5090203;28;8990;-76
2023/08/07 06:43:30;;;;;;;;;3.40;3.40;;;;;21.21;40.76;98846.00;5087782;28;8839;-76
2023/08/07 06:46:00;;;;;;;;;4.20;4.00;;;;;21.38;41.06;98850.06;5083737;28;8904;-76
2023/08/07 06:48:29;;;;;;;;;3.20;3.20;;;;;21.26;40.89;98856.38;5079197;28;8863;-76
2023/08/07 06:50:58;;;;;;;;;4.40;3.00;;;;;21.39;40.66;98864.28;5075838;28;8876;-77
2023/08/07 06:53:27;;;;;;;;;2.00;2.00;;;;;21.43;41.19;98861.25;5056293;28;8976;-76
2023/08/07 06:55:57;;;;;;;;;2.60;1.60;;;;;21.54;39.59;98863.13;5052739;28;8864;-77
2023/08/07 06:58:26;;;;;;;;;1.00;1.00;;;;;21.59;39.19;98863.63;5087760;28;8986;-76
2023/08/07 07:00:54;;;;;;;;;1.00;0.00;;;;;21.61;39.68;98868.84;5088535;28;8859;-77
2023/08/07 07:03:23;;;;;;;;;1.00;1.00;;;;;21.73;39.06;98862.56;5069280;28;8868;-76
2023/08/07 07:05:52;;;;;;;;;1.20;1.20;;;;;21.76;38.23;98872.16;5073236;28;8894;-76
2023/08/07 07:08:23;;;;;;;;;1.00;1.00;;;;;21.84;39.47;98867.94;5088740;28;8859;-78
2023/08/07 07:10:51;;;;;;;;;1.00;1.00;;;;;21.93;38.12;98877.03;5071856;28;8892;-78
2023/08/07 07:13:22;;;;;;;;;1.00;1.00;;;;;22.11;37.24;98881.88;5068007;28;8854;-77
2023/08/07 07:15:54;;;;;;;;;1.40;1.40;;;;;22.11;37.58;98885.44;5067315;28;8849;-78
2023/08/07 07:18:23;;;;;;;;;3.20;2.00;;;;;22.18;37.01;98878.63;5078512;28;8867;-78
2023/08/07 07:20:58;;;;;;;;;1.20;1.20;;;;;22.27;36.14;98874.38;5091511;28;8908;-78
2023/08/07 07:23:28;;;;;;;;;0.80;0.00;;;;;22.25;36.92;98870.97;5066610;28;8860;-77
2023/08/07 07:25:57;;;;;;;;;1.40;1.40;;;;;22.34;35.39;98872.06;5088255;28;8987;-77
2023/08/07 07:28:28;;;;;;;;;1.00;1.00;;;;;22.31;35.19;98873.16;5087424;28;9623;-77
2023/08/07 07:31:00;;;;;;;;;0.40;0.40;;;;;22.49;34.65;98876.16;5085788;28;8978;-79
2023/08/07 07:33:29;;;;;;;;;4.00;1.40;;;;;22.50;35.33;98871.66;5086801;28;8851;-78
2023/08/07 07:35:58;;;;;;;;;1.60;1.60;;;;;22.55;34.94;98874.81;5075870;28;8863;-77
2023/08/07 07:38:27;;;;;;;;;3.00;2.00;;;;;22.68;35.81;98872.84;5087377;28;8875;-77
2023/08/07 07:40:56;;;;;;;;;1.00;1.00;;;;;22.75;35.89;98878.53;5086045;28;8844;-78
2023/08/07 07:43:25;;;;;;;;;2.00;2.00;;;;;22.72;35.66;98870.75;5087208;28;8870;-78
2023/08/07 07:45:55;;;;;;;;;2.00;2.00;;;;;22.84;35.62;98874.25;5085439;28;8941;-77
2023/08/07 07:48:24;;;;;;;;;1.00;1.00;;;;;22.87;35.38;98879.34;5087237;28;8848;-77
2023/08/07 07:50:59;;;;;;;;;2.00;2.00;;;;;23.00;34.52;98880.91;5081567;28;8852;-77
2023/08/07 07:53:28;;;;;;;;;2.20;2.20;;;;;22.91;35.16;98887.03;5073237;28;8939;-76
2023/08/07 07:55:57;;;;;;;;;4.20;3.00;;;;;23.04;35.08;98891.38;5086052;28;8848;-77
2023/08/07 07:58:26;;;;;;;;;3.60;2.20;;;;;23.09;35.80;98887.34;5087668;28;9628;-77
2023/08/07 08:00:56;;;;;;;;;2.00;2.00;;;;;23.10;35.54;98890.88;5087083;28;8848;-77
2023/08/07 08:03:25;;;;;;;;;2.80;1.80;;;;;23.10;35.34;98885.50;5088072;28;8848;-77
2023/08/07 08:05:54;;;;;;;;;2.40;2.20;;;;;23.27;35.15;98897.50;5085976;28;8859;-76
2023/08/07 08:08:23;;;;;;;;;4.80;4.80;;;;;23.38;35.20;98892.91;5081414;28;8847;-77
2023/08/07 08:10:55;;;;;;;;;2.60;2.60;;;;;23.40;36.24;98895.47;5082544;28;8962;-77
2023/08/07 08:13:25;;;;;;;;;3.00;3.00;;;;;23.41;36.06;98894.47;5111258;28;9005;-77
2023/08/07 08:15:54;;;;;;;;;3.00;3.00;;;;;23.44;35.84;98904.13;5082102;28;8878;-77
2023/08/07 08:18:24;;;;;;;;;2.00;2.00;;;;;23.46;34.52;98891.41;5078920;28;8859;-79
2023/08/07 08:20:53;;;;;;;;;5.80;3.60;;;;;23.48;34.59;98890.28;5084883;28;9790;-78
2023/08/07 08:23:22;;;;;;;;;4.00;4.00;;;;;23.46;33.59;98888.75;5068351;28;8902;-77
2023/08/07 08:25:51;;;;;;;;;2.20;2.20;;;;;23.46;33.28;98888.75;5074821;28;8871;-77
2023/08/07 08:28:19;;;;;;;;;1.80;1.80;;;;;23.48;33.50;98890.28;5091327;28;8928;-77
2023/08/07 08:30:52;;;;;;;;;3.20;3.20;;;;;23.44;33.44;98882.66;5089656;28;8877;-78
2023/08/07 08:33:21;;;;;;;;;2.00;2.00;;;;;23.29;33.33;98891.00;5086615;28;8886;-77
2023/08/07 08:35:51;;;;;;;;;1.00;1.00;;;;;23.42;33.19;98887.31;5091115;28;8852;-79
2023/08/07 08:38:21;;;;;;;;;3.80;3.80;;;;;23.48;32.57;98889.44;5090490;28;8854;-74
2023/08/07 08:40:53;;;;;;;;;1.80;1.80;;;;;23.51;34.15;98887.38;5072161;28;8976;-73
2023/08/07 08:43:23;;;;;;;;;1.80;1.80;;;;;23.64;34.15;98892.56;5091278;28;8870;-74
2023/08/07 08:45:52;;;;;;;;;1.00;1.00;;;;;23.75;34.32;98891.63;5091638;28;8880;-75
2023/08/07 08:48:23;;;;;;;;;2.00;2.00;;;;;23.68;33.86;98901.19;5091478;28;8863;-74
2023/08/07 08:50:54;;;;;;;;;2.40;2.40;;;;;23.69;33.63;98905.56;5106626;28;8898;-73
2023/08/07 08:53:24;;;;;;;;;1.00;1.00;;;;;23.61;33.78;98905.38;5090127;28;8863;-74
2023/08/07 08:55:53;;;;;;;;;2.40;1.80;;;;;23.28;33.91;98904.53;5088344;28;8840;-74
2023/08/07 08:58:24;;;;;;;;;1.80;1.80;;;;;23.41;34.71;98905.19;5067574;28;9508;-74
2023/08/07 09:00:53;;;;;;;;;1.00;1.00;;;;;23.50;34.25;98898.22;5035778;28;9025;-73
2023/08/07 09:03:22;;;;;;;;;3.40;2.80;;;;;23.62;33.74;98897.22;5089414;28;8836;-74
2023/08/07 09:05:58;;;;;;;;;0.80;0.80;;;;;23.83;32.57;98901.69;5090412;28;8874;-73
2023/08/07 09:08:29;;;;;;;;;3.00;2.60;;;;;23.37;33.21;98904.63;5090247;28;8901;-74
2023/08/07 09:10:58;;;;;;;;;0.60;0.60;;;;;23.58;32.98;98893.94;5082132;28;8831;-73
2023/08/07 09:13:29;;;;;;;;;2.00;2.00;;;;;23.71;32.96;98893.72;5084311;28;8890;-74
2023/08/07 09:16:01;;;;;;;;;1.00;1.00;;;;;23.57;33.83;98896.75;5088436;28;8868;-74
2023/08/07 09:18:32;;;;;;;;;3.20;3.20;;;;;23.54;34.05;98888.94;5088984;28;8884;-73
2023/08/07 09:21:03;;;;;;;;;1.80;1.80;;;;;23.75;33.08;98888.94;5071973;28;9562;-77
2023/08/07 09:23:32;;;;;;;;;1.00;1.00;;;;;23.81;33.31;98888.41;5091190;28;8882;-74
2023/08/07 09:26:02;;;;;;;;;1.00;1.00;;;;;23.75;31.82;98896.97;5088529;28;8859;-75
2023/08/07 09:28:33;;;;;;;;;0.80;0.80;;;;;23.87;31.92;98889.72;5085194;28;8903;-75
2023/08/07 09:31:02;;;;;;;;;1.00;1.00;;;;;23.97;32.01;98893.28;5104522;28;8921;-74
2023/08/07 09:33:31;;;;;;;;;1.80;1.80;;;;;24.08;32.46;98884.31;5090515;28;8917;-75
2023/08/07 09:36:02;;;;;;;;;1.00;1.00;;;;;24.21;31.39;98887.63;5072861;28;8840;-75
2023/08/07 09:38:32;;;;;;;;;2.40;1.80;;;;;24.32;32.12;98883.97;5052811;28;8844;-76
2023/08/07 09:41:03;;;;;;;;;2.00;2.00;;;;;24.55;32.32;98888.16;5088437;28;8950;-76
2023/08/07 09:43:36;;;;;;;;;1.00;1.00;;;;;24.70;30.67;98890.44;5089021;28;8856;-77
2023/08/07 09:46:05;;;;;;;;;3.00;3.00;;;;;24.76;30.95;98889.91;5088564;28;8856;-75
2023/08/07 09:48:41;;;;;;;;;1.80;1.80;;;;;24.94;30.54;98890.06;5088647;28;8847;-74
2023/08/07 09:51:11;;;;;;;;;3.20;3.20;;;;;24.87;30.39;98883.56;5071862;28;8894;-75
2023/08/07 09:53:41;;;;;;;;;4.20;2.80;;;;;24.81;30.19;98890.38;5086854;28;8962;-75
2023/08/07 09:56:10;;;;;;;;;1.60;1.60;;;;;24.79;30.36;98900.38;5089520;28;9002;-76
2023/08/07 09:58:39;;;;;;;;;2.00;2.00;;;;;24.89;30.19;98892.34;5088561;28;8920;-75
2023/08/07 10:01:09;;;;;;;;;0.80;0.80;;;;;25.05;29.93;98894.47;5067147;28;8879;-74
2023/08/07 10:03:39;;;;;;;;;1.80;1.80;;;;;25.11;29.49;98892.06;5048689;28;9069;-75
2023/08/07 10:06:09;;;;;;;;;2.80;2.80;;;;;25.25;30.58;98889.94;5083872;28;9685;-74
2023/08/07 10:08:42;;;;;;;;;1.60;1.60;;;;;25.29;29.29;98894.88;5065569;28;8977;-75
2023/08/07 10:11:11;;;;;;;;;1.80;1.60;;;;;25.40;28.63;98891.22;5041172;28;8869;-75
2023/08/07 10:13:40;;;;;;;;;1.60;1.60;;;;;25.45;28.53;98893.47;5063449;28;8844;-74
2023/08/07 10:16:08;;;;;;;;;2.00;2.00;;;;;25.56;28.35;98890.63;5066358;28;8902;-75
2023/08/07 10:18:37;;;;;;;;;1.40;1.40;;;;;25.65;29.11;98891.59;5066061;28;8832;-75
2023/08/07 10:21:07;;;;;;;;;2.80;2.80;;;;;25.78;29.70;98902.91;5049236;28;8871;-74
2023/08/07 10:23:37;;;;;;;;;1.80;1.80;;;;;25.87;29.41;98898.47;5082257;28;8952;-77
2023/08/07 10:26:11;;;;;;;;;1.00;1.00;;;;;25.99;29.56;98905.41;5066255;28;9592;-76
2023/08/07 10:28:42;;;;;;;;;1.40;1.00;;;;;26.09;29.18;98900.00;5065816;28;9656;-74
2023/08/07 10:31:13;;;;;;;;;1.80;1.80;;;;;26.07;29.53;98897.44;5052574;28;8987;-75
2023/08/07 10:33:43;;;;;;;;;0.80;0.80;;;;;25.95;29.48;98893.25;5087067;28;8890;-75
2023/08/07 10:36:13;;;;;;;;;1.80;1.80;;;;;25.98;29.62;98894.78;5088645;28;8867;-75
2023/08/07 10:38:42;;;;;;;;;2.00;1.80;;;;;25.96;30.26;98894.09;5089022;28;8870;-75
2023/08/07 10:41:14;;;;;;;;;2.20;2.20;;;;;25.78;30.13;98896.69;5087815;28;8856;-75
2023/08/07 10:43:44;;;;;;;;;1.80;1.80;;;;;25.83;30.10;98908.72;5088611;28;8852;-74
2023/08/07 10:46:15;;;;;;;;;2.00;2.00;;;;;25.58;30.28;98909.31;5088233;28;8913;-75
2023/08/07 10:48:46;;;;;;;;;2.00;2.00;;;;;25.49;30.15;98909.22;5045038;28;8888;-75
2023/08/07 10:51:16;;;;;;;;;1.60;1.60;;;;;25.40;30.09;98899.31;5048613;28;8858;-75
2023/08/07 10:53:47;;;;;;;;;2.40;2.40;;;;;25.20;30.28;98897.59;5079256;28;8860;-76
2023/08/07 10:56:30;;;;;;;;;1.80;1.80;;;;;25.10;31.23;98894.91;5086590;28;8891;-76
2023/08/07 10:58:59;;;;;;;;;2.00;1.80;;;;;25.10;30.92;98894.91;5025282;28;8991;-77
2023/08/07 11:01:40;;;;;;;;;0.80;0.80;;;;;25.02;31.25;98895.59;5080110;28;8961;-77
2023/08/07 11:04:11;;;;;;;;;1.40;1.40;;;;;24.97;31.50;98889.78;5068201;28;8838;-75
2023/08/07 11:06:42;;;;;;;;;2.40;2.40;;;;;24.81;31.59;98895.72;5075115;28;8836;-77
2023/08/07 11:09:12;;;;;;;;;1.80;1.40;;;;;24.90;31.15;98891.34;5087978;28;9581;-76
2023/08/07 11:11:44;;;;;;;;;1.80;1.80;;;;;24.87;31.30;98903.22;5062778;28;8917;-75
2023/08/07 11:14:15;;;;;;;;;3.40;3.40;;;;;25.03;30.97;98886.53;5085841;28;8987;-76
2023/08/07 11:16:45;;;;;;;;;2.80;2.60;;;;;24.92;31.56;98897.41;5085994;28;8932;-75
2023/08/07 11:19:15;;;;;;;;;6.00;6.00;;;;;24.93;31.34;98891.06;5084822;28;8906;-77
2023/08/07 11:21:44;;;;;;;;;1.60;1.60;;;;;24.98;30.36;98879.88;5087996;28;8859;-75
2023/08/07 11:24:15;;;;;;;;;2.00;2.00;;;;;25.05;30.82;98881.03;5086693;28;8852;-76
2023/08/07 11:26:46;;;;;;;;;3.00;2.60;;;;;25.06;30.63;98872.81;5086792;28;8851;-75
2023/08/07 11:29:18;;;;;;;;;3.00;3.00;;;;;25.10;30.75;98879.59;5088518;28;8872;-75
2023/08/07 11:31:47;;;;;;;;;4.00;3.00;;;;;25.03;30.63;98869.56;5068656;28;8847;-75
2023/08/07 11:34:18;;;;;;;;;1.80;1.80;;;;;25.15;30.52;98879.16;5080051;28;8842;-77
2023/08/07 11:36:48;;;;;;;;;2.60;2.60;;;;;25.28;29.98;98878.88;5084353;28;8879;-76
2023/08/07 11:39:17;;;;;;;;;2.80;2.80;;;;;24.99;30.80;98877.06;5088373;28;8982;-74
2023/08/07 11:41:48;;;;;;;;;1.20;1.20;;;;;24.95;30.81;98870.28;5087917;28;8863;-75
2023/08/07 11:44:17;;;;;;;;;2.80;2.80;;;;;25.00;30.68;98870.69;5071730;28;8962;-77
2023/08/07 11:46:46;;;;;;;;;2.80;2.80;;;;;25.01;31.30;98868.84;5086509;28;9635;-75
2023/08/07 11:49:15;;;;;;;;;4.60;4.60;;;;;25.23;31.02;98868.56;5084175;28;9009;-73
2023/08/07 11:51:44;;;;;;;;;3.00;3.00;;;;;25.50;30.94;98869.69;5065777;28;8967;-76
2023/08/07 11:54:16;;;;;;;;;3.00;3.00;;;;;25.70;30.17;98854.34;5060333;28;8982;-75